Hlavní strana
METAR-TAF:

METAR-TAF

Letiště :

Mohylev, Bělorusko

zeměpisná šířka: 53-57-18N, zeměpisná délka: 030-05-42E, výška: 194 m

Aktuální stav počasí

Zpráva byla vytvořena před 3 hodinami a 22 minutami, v 13:00 UTC
Západoseverozápadní vítr 4 kt
Teplota -17°C
Vlhkost vzduchu 59%
Tlak 1019 hPa
Viditelnost 10 km a více
Žádná oblačnost pod 1500 m, nevyskytují se cumulonimby.

METAR: UMOO 181300Z 29002MPS CAVOK M17/M23 Q1019 R13/710320 NOSIG

Čas: 19:22 (16:22 UTC)

Předpověď počasí

Zpráva byla vytvořena před 5 hodinami a 20 minutami, v 11:02 UTC
Předpověď platná od 18 v 12 UTC do 18 v 21 UTC
vítr z různých směrů 4 kt
Viditelnost: 8000 m
Oblačno až skoro zataženo ve výšce 1300 ft
Dočasný
od 18 v 12 UTC do 18 v 21 UTC
Viditelnost: 3000 m
Oblačno až skoro zataženo ve výšce 700 ft
slabé sněžení, kouřmo

TAF: UMOO 181102Z 1812/1821 VRB02MPS 8000 BKN013 TEMPO 1812/1821 3000 -SN BR BKN007

Stav a předpovědi počasí z více než 4 000 letišť (zprávy METAR a TAF).

Červené a žluté tečky na mapě představují dostupné meteorologické stanice.

Když kurzor umístíte na tečku, zobrazí se název stanice.

Pak kliknutím zobrazíte stav a předpověď počasí.

Chcete-li změnit mapu, kliknutím na zelené tlačítko se znaménkem +mapu přiblížíte, kliknutím na zelené tlačítko se znaménkem – mapu oddálíte a kliknutím na zelené šipky přejdete na sousední mapy.


METAR-TAF: